sensor_id;sensor_type;location;lat;lon;timestamp;temperature;humidity
24049;DHT22;12250;50.956;4.746;2023-03-01T00:01:27;-1.60;99.90
24049;DHT22;12250;50.956;4.746;2023-03-01T00:03:54;-1.60;99.90
24049;DHT22;12250;50.956;4.746;2023-03-01T00:06:20;-1.60;99.90
24049;DHT22;12250;50.956;4.746;2023-03-01T00:08:46;-1.70;99.90
24049;DHT22;12250;50.956;4.746;2023-03-01T00:13:40;-1.80;99.90
24049;DHT22;12250;50.956;4.746;2023-03-01T00:16:09;-1.90;99.90
24049;DHT22;12250;50.956;4.746;2023-03-01T00:18:35;-1.90;99.90
24049;DHT22;12250;50.956;4.746;2023-03-01T00:21:01;-1.90;99.90
24049;DHT22;12250;50.956;4.746;2023-03-01T00:23:27;-1.90;99.90
24049;DHT22;12250;50.956;4.746;2023-03-01T00:25:53;-1.90;99.90
24049;DHT22;12250;50.956;4.746;2023-03-01T00:28:19;-1.90;99.90
24049;DHT22;12250;50.956;4.746;2023-03-01T00:30:45;-2.00;99.90
24049;DHT22;12250;50.956;4.746;2023-03-01T00:33:11;-2.00;99.90
24049;DHT22;12250;50.956;4.746;2023-03-01T00:35:37;-2.10;99.90
24049;DHT22;12250;50.956;4.746;2023-03-01T00:38:02;-2.20;99.90
24049;DHT22;12250;50.956;4.746;2023-03-01T00:40:31;-2.20;99.90
24049;DHT22;12250;50.956;4.746;2023-03-01T00:42:57;-2.10;99.90
24049;DHT22;12250;50.956;4.746;2023-03-01T00:45:23;-2.20;99.90
24049;DHT22;12250;50.956;4.746;2023-03-01T00:47:50;-2.20;99.90
24049;DHT22;12250;50.956;4.746;2023-03-01T00:50:16;-2.20;99.90
24049;DHT22;12250;50.956;4.746;2023-03-01T00:52:42;-2.20;99.90
24049;DHT22;12250;50.956;4.746;2023-03-01T00:55:08;-2.20;99.90
24049;DHT22;12250;50.956;4.746;2023-03-01T00:57:34;-2.20;99.90
24049;DHT22;12250;50.956;4.746;2023-03-01T00:59:59;-2.20;99.90
24049;DHT22;12250;50.956;4.746;2023-03-01T01:02:25;-2.20;99.90
24049;DHT22;12250;50.956;4.746;2023-03-01T01:04:52;-2.20;99.90
24049;DHT22;12250;50.956;4.746;2023-03-01T01:07:18;-2.20;99.90
24049;DHT22;12250;50.956;4.746;2023-03-01T01:09:45;-2.10;99.90
24049;DHT22;12250;50.956;4.746;2023-03-01T01:12:11;-2.10;99.90
24049;DHT22;12250;50.956;4.746;2023-03-01T01:14:37;-2.10;99.90
24049;DHT22;12250;50.956;4.746;2023-03-01T01:17:03;-2.10;99.90
24049;DHT22;12250;50.956;4.746;2023-03-01T01:19:28;-2.10;99.90
24049;DHT22;12250;50.956;4.746;2023-03-01T01:21:54;-2.10;99.90
24049;DHT22;12250;50.956;4.746;2023-03-01T01:24:20;-2.10;99.90
24049;DHT22;12250;50.956;4.746;2023-03-01T01:26:45;-2.10;99.90
24049;DHT22;12250;50.956;4.746;2023-03-01T01:29:12;-2.10;99.90
24049;DHT22;12250;50.956;4.746;2023-03-01T01:31:39;-2.10;99.90
24049;DHT22;12250;50.956;4.746;2023-03-01T01:34:07;-2.10;99.90
24049;DHT22;12250;50.956;4.746;2023-03-01T01:36:35;-2.10;99.90
24049;DHT22;12250;50.956;4.746;2023-03-01T01:39:01;-2.10;99.90
24049;DHT22;12250;50.956;4.746;2023-03-01T01:41:28;-2.00;99.90
24049;DHT22;12250;50.956;4.746;2023-03-01T01:47:00;-1.90;99.90
24049;DHT22;12250;50.956;4.746;2023-03-01T01:49:44;-1.80;99.90
24049;DHT22;12250;50.956;4.746;2023-03-01T01:52:18;-1.90;99.90
24049;DHT22;12250;50.956;4.746;2023-03-01T01:55:00;-1.90;99.90
24049;DHT22;12250;50.956;4.746;2023-03-01T01:58:01;-2.00;99.90
24049;DHT22;12250;50.956;4.746;2023-03-01T02:00:29;-2.10;99.90
24049;DHT22;12250;50.956;4.746;2023-03-01T02:03:02;-2.20;99.90
24049;DHT22;12250;50.956;4.746;2023-03-01T02:08:12;-2.30;99.90
24049;DHT22;12250;50.956;4.746;2023-03-01T02:10:38;-2.40;99.90
24049;DHT22;12250;50.956;4.746;2023-03-01T02:13:04;-2.40;99.90
24049;DHT22;12250;50.956;4.746;2023-03-01T02:15:34;-2.50;99.90
24049;DHT22;12250;50.956;4.746;2023-03-01T02:18:02;-2.50;99.90
24049;DHT22;12250;50.956;4.746;2023-03-01T02:23:03;-2.60;99.90
24049;DHT22;12250;50.956;4.746;2023-03-01T02:25:47;-2.60;99.90
24049;DHT22;12250;50.956;4.746;2023-03-01T02:30:42;-2.70;99.90
24049;DHT22;12250;50.956;4.746;2023-03-01T02:33:29;-2.70;99.90
24049;DHT22;12250;50.956;4.746;2023-03-01T02:36:00;-2.80;99.90
24049;DHT22;12250;50.956;4.746;2023-03-01T02:38:28;-2.80;99.90
24049;DHT22;12250;50.956;4.746;2023-03-01T02:40:54;-2.90;99.90
24049;DHT22;12250;50.956;4.746;2023-03-01T02:43:27;-2.90;99.90
24049;DHT22;12250;50.956;4.746;2023-03-01T02:45:58;-2.90;99.90
24049;DHT22;12250;50.956;4.746;2023-03-01T02:48:24;-3.00;99.90
24049;DHT22;12250;50.956;4.746;2023-03-01T02:51:03;-3.00;99.90
24049;DHT22;12250;50.956;4.746;2023-03-01T02:56:04;-3.10;99.90
24049;DHT22;12250;50.956;4.746;2023-03-01T02:58:29;-3.20;99.90
24049;DHT22;12250;50.956;4.746;2023-03-01T03:00:55;-3.20;99.90
24049;DHT22;12250;50.956;4.746;2023-03-01T03:03:22;-3.30;99.90
24049;DHT22;12250;50.956;4.746;2023-03-01T03:05:48;-3.30;99.90
24049;DHT22;12250;50.956;4.746;2023-03-01T03:08:14;-3.30;99.90
24049;DHT22;12250;50.956;4.746;2023-03-01T03:10:49;-3.30;99.90
24049;DHT22;12250;50.956;4.746;2023-03-01T03:13:15;-3.40;99.90
24049;DHT22;12250;50.956;4.746;2023-03-01T03:15:42;-3.40;99.90
24049;DHT22;12250;50.956;4.746;2023-03-01T03:18:10;-3.40;99.90
24049;DHT22;12250;50.956;4.746;2023-03-01T03:20:38;-3.50;99.90
24049;DHT22;12250;50.956;4.746;2023-03-01T03:23:04;-3.40;99.90
24049;DHT22;12250;50.956;4.746;2023-03-01T03:25:30;-3.40;99.90
24049;DHT22;12250;50.956;4.746;2023-03-01T03:27:56;-3.40;99.90
24049;DHT22;12250;50.956;4.746;2023-03-01T03:30:30;-3.40;99.90
24049;DHT22;12250;50.956;4.746;2023-03-01T03:32:58;-3.30;99.90
24049;DHT22;12250;50.956;4.746;2023-03-01T03:37:52;-3.20;99.90
24049;DHT22;12250;50.956;4.746;2023-03-01T03:40:34;-3.10;99.90
24049;DHT22;12250;50.956;4.746;2023-03-01T03:43:01;-3.10;99.90
24049;DHT22;12250;50.956;4.746;2023-03-01T03:45:27;-3.00;99.90
24049;DHT22;12250;50.956;4.746;2023-03-01T03:47:52;-3.00;99.90
24049;DHT22;12250;50.956;4.746;2023-03-01T03:50:18;-2.90;99.90
24049;DHT22;12250;50.956;4.746;2023-03-01T03:52:44;-2.90;99.90
24049;DHT22;12250;50.956;4.746;2023-03-01T03:55:11;-2.90;99.90
24049;DHT22;12250;50.956;4.746;2023-03-01T03:57:38;-2.90;99.90
24049;DHT22;12250;50.956;4.746;2023-03-01T04:00:06;-2.90;99.90
24049;DHT22;12250;50.956;4.746;2023-03-01T04:02:39;-2.90;99.90
24049;DHT22;12250;50.956;4.746;2023-03-01T04:05:06;-2.90;99.90
24049;DHT22;12250;50.956;4.746;2023-03-01T04:07:34;-3.00;99.90
24049;DHT22;12250;50.956;4.746;2023-03-01T04:09:59;-3.00;99.90
24049;DHT22;12250;50.956;4.746;2023-03-01T04:12:25;-3.00;99.90
24049;DHT22;12250;50.956;4.746;2023-03-01T04:14:51;-3.00;99.90
24049;DHT22;12250;50.956;4.746;2023-03-01T04:17:16;-3.00;99.90
24049;DHT22;12250;50.956;4.746;2023-03-01T04:19:42;-3.10;99.90
24049;DHT22;12250;50.956;4.746;2023-03-01T04:22:09;-3.10;99.90
24049;DHT22;12250;50.956;4.746;2023-03-01T04:24:36;-3.10;99.90
24049;DHT22;12250;50.956;4.746;2023-03-01T04:27:02;-3.10;99.90
24049;DHT22;12250;50.956;4.746;2023-03-01T04:29:28;-3.10;99.90
24049;DHT22;12250;50.956;4.746;2023-03-01T04:31:54;-3.10;99.90
24049;DHT22;12250;50.956;4.746;2023-03-01T04:34:20;-3.10;99.90
24049;DHT22;12250;50.956;4.746;2023-03-01T04:36:45;-3.20;99.90
24049;DHT22;12250;50.956;4.746;2023-03-01T04:39:11;-3.20;99.90
24049;DHT22;12250;50.956;4.746;2023-03-01T04:41:39;-3.20;99.90
24049;DHT22;12250;50.956;4.746;2023-03-01T04:44:06;-3.10;99.90
24049;DHT22;12250;50.956;4.746;2023-03-01T04:46:32;-3.10;99.90
24049;DHT22;12250;50.956;4.746;2023-03-01T04:48:58;-3.10;99.90
24049;DHT22;12250;50.956;4.746;2023-03-01T04:51:24;-3.10;99.90
24049;DHT22;12250;50.956;4.746;2023-03-01T04:53:50;-3.10;99.90
24049;DHT22;12250;50.956;4.746;2023-03-01T04:56:16;-3.10;99.90
24049;DHT22;12250;50.956;4.746;2023-03-01T04:58:45;-3.10;99.90
24049;DHT22;12250;50.956;4.746;2023-03-01T05:01:13;-3.10;99.90
24049;DHT22;12250;50.956;4.746;2023-03-01T05:03:50;-3.10;99.90
24049;DHT22;12250;50.956;4.746;2023-03-01T05:06:16;-3.10;99.90
24049;DHT22;12250;50.956;4.746;2023-03-01T05:08:43;-3.10;99.90
24049;DHT22;12250;50.956;4.746;2023-03-01T05:11:09;-3.10;99.90
24049;DHT22;12250;50.956;4.746;2023-03-01T05:13:37;-3.10;99.90
24049;DHT22;12250;50.956;4.746;2023-03-01T05:16:04;-3.20;99.90
24049;DHT22;12250;50.956;4.746;2023-03-01T05:18:32;-3.30;99.90
24049;DHT22;12250;50.956;4.746;2023-03-01T05:21:04;-3.30;99.90
24049;DHT22;12250;50.956;4.746;2023-03-01T05:23:31;-3.40;99.90
24049;DHT22;12250;50.956;4.746;2023-03-01T05:26:01;-3.40;99.90
24049;DHT22;12250;50.956;4.746;2023-03-01T05:28:29;-3.40;99.90
24049;DHT22;12250;50.956;4.746;2023-03-01T05:30:55;-3.40;99.90
24049;DHT22;12250;50.956;4.746;2023-03-01T05:33:21;-3.40;99.90
24049;DHT22;12250;50.956;4.746;2023-03-01T05:35:48;-3.50;99.90
24049;DHT22;12250;50.956;4.746;2023-03-01T05:38:14;-3.50;99.90
24049;DHT22;12250;50.956;4.746;2023-03-01T05:40:45;-3.50;99.90
24049;DHT22;12250;50.956;4.746;2023-03-01T05:43:12;-3.60;99.90
24049;DHT22;12250;50.956;4.746;2023-03-01T05:45:39;-3.50;99.90
24049;DHT22;12250;50.956;4.746;2023-03-01T05:48:06;-3.60;99.90
24049;DHT22;12250;50.956;4.746;2023-03-01T05:50:35;-3.60;99.90
24049;DHT22;12250;50.956;4.746;2023-03-01T05:53:04;-3.60;99.90
24049;DHT22;12250;50.956;4.746;2023-03-01T05:55:31;-3.70;99.90
24049;DHT22;12250;50.956;4.746;2023-03-01T05:58:01;-3.70;99.90
24049;DHT22;12250;50.956;4.746;2023-03-01T06:00:28;-3.70;99.90
24049;DHT22;12250;50.956;4.746;2023-03-01T06:02:56;-3.70;99.90
24049;DHT22;12250;50.956;4.746;2023-03-01T06:05:22;-3.80;99.90
24049;DHT22;12250;50.956;4.746;2023-03-01T06:07:48;-3.80;99.90
24049;DHT22;12250;50.956;4.746;2023-03-01T06:10:16;-3.80;99.90
24049;DHT22;12250;50.956;4.746;2023-03-01T06:12:42;-3.80;99.90
24049;DHT22;12250;50.956;4.746;2023-03-01T06:15:11;-3.80;99.90
24049;DHT22;12250;50.956;4.746;2023-03-01T06:17:40;-3.80;99.90
24049;DHT22;12250;50.956;4.746;2023-03-01T06:20:09;-3.80;99.90
24049;DHT22;12250;50.956;4.746;2023-03-01T06:22:35;-3.80;99.90
24049;DHT22;12250;50.956;4.746;2023-03-01T06:25:01;-3.80;99.90
24049;DHT22;12250;50.956;4.746;2023-03-01T06:27:27;-3.90;99.90
24049;DHT22;12250;50.956;4.746;2023-03-01T06:29:53;-3.90;99.90
24049;DHT22;12250;50.956;4.746;2023-03-01T06:32:19;-3.90;99.90
24049;DHT22;12250;50.956;4.746;2023-03-01T06:34:44;-4.00;99.90
24049;DHT22;12250;50.956;4.746;2023-03-01T06:37:10;-4.00;99.90
24049;DHT22;12250;50.956;4.746;2023-03-01T06:39:36;-4.00;99.90
24049;DHT22;12250;50.956;4.746;2023-03-01T06:42:02;-4.00;99.90
24049;DHT22;12250;50.956;4.746;2023-03-01T06:44:28;-3.90;99.90
24049;DHT22;12250;50.956;4.746;2023-03-01T06:46:54;-3.90;99.90
24049;DHT22;12250;50.956;4.746;2023-03-01T06:49:19;-3.80;99.90
24049;DHT22;12250;50.956;4.746;2023-03-01T06:51:45;-3.90;99.90
24049;DHT22;12250;50.956;4.746;2023-03-01T06:54:11;-3.80;99.90
24049;DHT22;12250;50.956;4.746;2023-03-01T06:56:37;-3.80;99.90
24049;DHT22;12250;50.956;4.746;2023-03-01T06:59:03;-3.70;99.90
24049;DHT22;12250;50.956;4.746;2023-03-01T07:01:29;-3.70;99.90
24049;DHT22;12250;50.956;4.746;2023-03-01T07:03:55;-3.70;99.90
24049;DHT22;12250;50.956;4.746;2023-03-01T07:06:21;-3.60;99.90
24049;DHT22;12250;50.956;4.746;2023-03-01T07:08:47;-3.60;99.90
24049;DHT22;12250;50.956;4.746;2023-03-01T07:11:13;-3.50;99.90
24049;DHT22;12250;50.956;4.746;2023-03-01T07:13:39;-3.40;99.90
24049;DHT22;12250;50.956;4.746;2023-03-01T07:16:05;-3.40;99.90
24049;DHT22;12250;50.956;4.746;2023-03-01T07:18:31;-3.20;99.90
24049;DHT22;12250;50.956;4.746;2023-03-01T07:20:57;-3.20;99.90
24049;DHT22;12250;50.956;4.746;2023-03-01T07:23:23;-3.10;99.90
24049;DHT22;12250;50.956;4.746;2023-03-01T07:25:53;-2.90;99.90
24049;DHT22;12250;50.956;4.746;2023-03-01T07:28:19;-2.70;99.90
24049;DHT22;12250;50.956;4.746;2023-03-01T07:30:45;-2.10;99.90
24049;DHT22;12250;50.956;4.746;2023-03-01T07:33:11;-1.30;99.90
24049;DHT22;12250;50.956;4.746;2023-03-01T07:35:37;0.20;99.90
24049;DHT22;12250;50.956;4.746;2023-03-01T07:38:02;2.30;99.90
24049;DHT22;12250;50.956;4.746;2023-03-01T07:40:28;4.60;99.90
24049;DHT22;12250;50.956;4.746;2023-03-01T07:42:57;6.70;99.90
24049;DHT22;12250;50.956;4.746;2023-03-01T07:45:25;8.40;99.90
24049;DHT22;12250;50.956;4.746;2023-03-01T07:47:51;9.60;99.90
24049;DHT22;12250;50.956;4.746;2023-03-01T07:50:17;10.50;94.50
24049;DHT22;12250;50.956;4.746;2023-03-01T07:52:45;10.90;91.60
24049;DHT22;12250;50.956;4.746;2023-03-01T07:55:11;11.10;86.40
24049;DHT22;12250;50.956;4.746;2023-03-01T07:57:37;11.50;78.10
24049;DHT22;12250;50.956;4.746;2023-03-01T08:00:03;11.90;77.40
24049;DHT22;12250;50.956;4.746;2023-03-01T08:02:29;12.80;73.70
24049;DHT22;12250;50.956;4.746;2023-03-01T08:04:54;13.30;66.90
24049;DHT22;12250;50.956;4.746;2023-03-01T08:07:20;13.40;64.90
24049;DHT22;12250;50.956;4.746;2023-03-01T08:09:46;13.50;62.50
24049;DHT22;12250;50.956;4.746;2023-03-01T08:12:11;14.40;60.10
24049;DHT22;12250;50.956;4.746;2023-03-01T08:14:37;15.10;57.00
24049;DHT22;12250;50.956;4.746;2023-03-01T08:17:03;15.10;55.50
24049;DHT22;12250;50.956;4.746;2023-03-01T08:19:28;15.40;54.10
24049;DHT22;12250;50.956;4.746;2023-03-01T08:21:54;16.10;53.30
24049;DHT22;12250;50.956;4.746;2023-03-01T08:24:20;16.50;51.60
24049;DHT22;12250;50.956;4.746;2023-03-01T08:26:46;16.30;50.10
24049;DHT22;12250;50.956;4.746;2023-03-01T08:29:12;16.20;50.80
24049;DHT22;12250;50.956;4.746;2023-03-01T08:31:39;16.50;49.60
24049;DHT22;12250;50.956;4.746;2023-03-01T08:34:08;16.50;48.70
24049;DHT22;12250;50.956;4.746;2023-03-01T08:36:42;16.40;49.20
24049;DHT22;12250;50.956;4.746;2023-03-01T08:39:10;16.90;48.60
24049;DHT22;12250;50.956;4.746;2023-03-01T08:41:36;16.80;47.90
24049;DHT22;12250;50.956;4.746;2023-03-01T08:44:03;17.80;48.60
24049;DHT22;12250;50.956;4.746;2023-03-01T08:46:31;18.80;45.20
24049;DHT22;12250;50.956;4.746;2023-03-01T08:48:57;18.10;44.50
24049;DHT22;12250;50.956;4.746;2023-03-01T08:51:23;17.30;45.80
24049;DHT22;12250;50.956;4.746;2023-03-01T08:53:49;16.00;47.20
24049;DHT22;12250;50.956;4.746;2023-03-01T08:56:15;15.70;48.40
24049;DHT22;12250;50.956;4.746;2023-03-01T08:58:45;16.20;48.00
24049;DHT22;12250;50.956;4.746;2023-03-01T09:01:14;16.40;47.70
24049;DHT22;12250;50.956;4.746;2023-03-01T09:03:40;16.90;47.50
24049;DHT22;12250;50.956;4.746;2023-03-01T09:06:07;16.70;45.60
24049;DHT22;12250;50.956;4.746;2023-03-01T09:08:41;16.90;46.60
24049;DHT22;12250;50.956;4.746;2023-03-01T09:11:13;17.60;44.80
24049;DHT22;12250;50.956;4.746;2023-03-01T09:13:40;17.80;44.50
24049;DHT22;12250;50.956;4.746;2023-03-01T09:16:08;17.70;44.00
24049;DHT22;12250;50.956;4.746;2023-03-01T09:18:34;17.80;44.00
24049;DHT22;12250;50.956;4.746;2023-03-01T09:23:36;17.10;44.70
24049;DHT22;12250;50.956;4.746;2023-03-01T09:26:02;17.90;44.20
24049;DHT22;12250;50.956;4.746;2023-03-01T09:28:28;16.70;44.20
24049;DHT22;12250;50.956;4.746;2023-03-01T09:30:58;16.00;45.30
24049;DHT22;12250;50.956;4.746;2023-03-01T09:33:24;15.70;46.90
24049;DHT22;12250;50.956;4.746;2023-03-01T09:35:59;14.80;47.80
24049;DHT22;12250;50.956;4.746;2023-03-01T09:38:25;13.80;49.90
24049;DHT22;12250;50.956;4.746;2023-03-01T09:40:51;12.60;51.30
24049;DHT22;12250;50.956;4.746;2023-03-01T09:43:29;12.70;53.50
24049;DHT22;12250;50.956;4.746;2023-03-01T09:46:03;13.00;52.30
24049;DHT22;12250;50.956;4.746;2023-03-01T09:48:33;12.10;52.80
24049;DHT22;12250;50.956;4.746;2023-03-01T09:51:06;11.80;54.80
24049;DHT22;12250;50.956;4.746;2023-03-01T09:53:34;10.40;55.60
24049;DHT22;12250;50.956;4.746;2023-03-01T09:58:47;9.50;58.00
24049;DHT22;12250;50.956;4.746;2023-03-01T10:01:47;9.60;59.50
24049;DHT22;12250;50.956;4.746;2023-03-01T10:04:41;10.60;59.60
24049;DHT22;12250;50.956;4.746;2023-03-01T10:09:40;12.80;54.00
24049;DHT22;12250;50.956;4.746;2023-03-01T10:12:17;12.30;53.20
24049;DHT22;12250;50.956;4.746;2023-03-01T10:15:11;12.70;53.40
24049;DHT22;12250;50.956;4.746;2023-03-01T10:17:46;12.50;52.10
24049;DHT22;12250;50.956;4.746;2023-03-01T10:20:23;11.60;54.30
24049;DHT22;12250;50.956;4.746;2023-03-01T10:22:50;11.30;54.40
24049;DHT22;12250;50.956;4.746;2023-03-01T10:28:17;14.30;49.70
24049;DHT22;12250;50.956;4.746;2023-03-01T10:30:45;15.10;48.70
24049;DHT22;12250;50.956;4.746;2023-03-01T10:33:25;14.90;48.10
24049;DHT22;12250;50.956;4.746;2023-03-01T10:35:52;15.60;45.90
24049;DHT22;12250;50.956;4.746;2023-03-01T10:38:18;16.00;45.50
24049;DHT22;12250;50.956;4.746;2023-03-01T10:41:04;16.10;44.80
24049;DHT22;12250;50.956;4.746;2023-03-01T10:43:56;14.60;46.90
24049;DHT22;12250;50.956;4.746;2023-03-01T10:46:34;15.00;47.90
24049;DHT22;12250;50.956;4.746;2023-03-01T10:49:22;14.60;46.10
24049;DHT22;12250;50.956;4.746;2023-03-01T10:51:50;14.10;48.70
24049;DHT22;12250;50.956;4.746;2023-03-01T10:54:29;14.60;47.30
24049;DHT22;12250;50.956;4.746;2023-03-01T10:56:58;15.10;47.60
24049;DHT22;12250;50.956;4.746;2023-03-01T10:59:34;14.00;47.50
24049;DHT22;12250;50.956;4.746;2023-03-01T11:04:34;13.20;49.30
24049;DHT22;12250;50.956;4.746;2023-03-01T11:07:01;11.90;51.50
24049;DHT22;12250;50.956;4.746;2023-03-01T11:09:32;11.80;52.90
24049;DHT22;12250;50.956;4.746;2023-03-01T11:12:04;10.90;53.90
24049;DHT22;12250;50.956;4.746;2023-03-01T11:14:37;10.70;55.50
24049;DHT22;12250;50.956;4.746;2023-03-01T11:17:18;10.20;56.80
24049;DHT22;12250;50.956;4.746;2023-03-01T11:20:16;9.80;57.30
24049;DHT22;12250;50.956;4.746;2023-03-01T11:23:13;9.50;58.70
24049;DHT22;12250;50.956;4.746;2023-03-01T11:25:54;9.10;59.70
24049;DHT22;12250;50.956;4.746;2023-03-01T11:28:21;8.40;60.80
24049;DHT22;12250;50.956;4.746;2023-03-01T11:36:10;7.70;63.00
24049;DHT22;12250;50.956;4.746;2023-03-01T11:38:41;7.40;65.10
24049;DHT22;12250;50.956;4.746;2023-03-01T12:06:09;7.30;65.20
24049;DHT22;12250;50.956;4.746;2023-03-01T12:08:38;7.20;65.80
24049;DHT22;12250;50.956;4.746;2023-03-01T12:11:52;7.10;63.50
24049;DHT22;12250;50.956;4.746;2023-03-01T12:17:24;7.30;63.80
24049;DHT22;12250;50.956;4.746;2023-03-01T12:20:32;7.30;64.30
24049;DHT22;12250;50.956;4.746;2023-03-01T12:23:20;7.30;66.00
24049;DHT22;12250;50.956;4.746;2023-03-01T12:29:14;7.20;64.10
24049;DHT22;12250;50.956;4.746;2023-03-01T12:50:53;7.50;63.10
24049;DHT22;12250;50.956;4.746;2023-03-01T12:53:24;7.40;63.80
24049;DHT22;12250;50.956;4.746;2023-03-01T12:55:51;7.40;63.80
24049;DHT22;12250;50.956;4.746;2023-03-01T12:58:24;7.40;63.50
24049;DHT22;12250;50.956;4.746;2023-03-01T13:06:38;7.30;64.50
24049;DHT22;12250;50.956;4.746;2023-03-01T13:11:50;7.60;66.80
24049;DHT22;12250;50.956;4.746;2023-03-01T13:16:49;7.70;65.60
24049;DHT22;12250;50.956;4.746;2023-03-01T13:19:27;7.70;65.60
24049;DHT22;12250;50.956;4.746;2023-03-01T13:21:58;7.70;66.20
24049;DHT22;12250;50.956;4.746;2023-03-01T13:24:39;7.70;63.90
24049;DHT22;12250;50.956;4.746;2023-03-01T13:27:21;7.70;64.40
24049;DHT22;12250;50.956;4.746;2023-03-01T13:32:24;7.60;65.20
24049;DHT22;12250;50.956;4.746;2023-03-01T13:34:52;7.70;65.80
24049;DHT22;12250;50.956;4.746;2023-03-01T13:37:23;7.90;66.30
24049;DHT22;12250;50.956;4.746;2023-03-01T13:39:52;7.80;64.10
24049;DHT22;12250;50.956;4.746;2023-03-01T13:42:35;7.80;65.50
24049;DHT22;12250;50.956;4.746;2023-03-01T13:45:33;7.90;65.80
24049;DHT22;12250;50.956;4.746;2023-03-01T13:47:57;8.10;65.80
24049;DHT22;12250;50.956;4.746;2023-03-01T13:50:31;8.00;65.10
24049;DHT22;12250;50.956;4.746;2023-03-01T13:53:00;8.00;65.00
24049;DHT22;12250;50.956;4.746;2023-03-01T13:58:05;7.80;65.50
24049;DHT22;12250;50.956;4.746;2023-03-01T14:00:39;8.00;65.20
24049;DHT22;12250;50.956;4.746;2023-03-01T14:03:24;8.20;65.30
24049;DHT22;12250;50.956;4.746;2023-03-01T14:06:09;8.20;63.20
24049;DHT22;12250;50.956;4.746;2023-03-01T14:08:38;8.10;63.30
24049;DHT22;12250;50.956;4.746;2023-03-01T14:17:15;8.30;61.70
24049;DHT22;12250;50.956;4.746;2023-03-01T14:19:46;8.10;62.50
24049;DHT22;12250;50.956;4.746;2023-03-01T14:22:29;7.90;63.30
24049;DHT22;12250;50.956;4.746;2023-03-01T14:24:56;7.90;64.00
24049;DHT22;12250;50.956;4.746;2023-03-01T14:27:40;8.10;63.50
24049;DHT22;12250;50.956;4.746;2023-03-01T14:30:20;8.00;62.80
24049;DHT22;12250;50.956;4.746;2023-03-01T14:32:58;8.00;63.00
24049;DHT22;12250;50.956;4.746;2023-03-01T14:35:27;8.10;62.70
24049;DHT22;12250;50.956;4.746;2023-03-01T14:37:53;8.20;63.20
24049;DHT22;12250;50.956;4.746;2023-03-01T14:40:35;8.40;62.60
24049;DHT22;12250;50.956;4.746;2023-03-01T14:43:08;8.40;62.60
24049;DHT22;12250;50.956;4.746;2023-03-01T14:45:34;8.40;62.20
24049;DHT22;12250;50.956;4.746;2023-03-01T14:48:03;8.20;62.70
24049;DHT22;12250;50.956;4.746;2023-03-01T14:50:32;8.20;63.40
24049;DHT22;12250;50.956;4.746;2023-03-01T14:53:00;8.40;63.20
24049;DHT22;12250;50.956;4.746;2023-03-01T14:57:56;8.20;62.70
24049;DHT22;12250;50.956;4.746;2023-03-01T15:00:25;8.10;62.90
24049;DHT22;12250;50.956;4.746;2023-03-01T15:02:53;8.00;62.60
24049;DHT22;12250;50.956;4.746;2023-03-01T15:05:33;7.90;63.90
24049;DHT22;12250;50.956;4.746;2023-03-01T15:08:01;8.00;62.80
24049;DHT22;12250;50.956;4.746;2023-03-01T15:10:30;7.90;63.10
24049;DHT22;12250;50.956;4.746;2023-03-01T15:12:56;8.00;63.70
24049;DHT22;12250;50.956;4.746;2023-03-01T15:15:34;8.10;62.20
24049;DHT22;12250;50.956;4.746;2023-03-01T15:18:03;8.10;63.30
24049;DHT22;12250;50.956;4.746;2023-03-01T15:20:31;8.00;61.80
24049;DHT22;12250;50.956;4.746;2023-03-01T15:23:01;8.10;61.10
24049;DHT22;12250;50.956;4.746;2023-03-01T15:25:29;7.80;61.40
24049;DHT22;12250;50.956;4.746;2023-03-01T15:27:56;7.90;63.20
24049;DHT22;12250;50.956;4.746;2023-03-01T15:30:32;7.90;62.50
24049;DHT22;12250;50.956;4.746;2023-03-01T15:33:25;7.90;61.60
24049;DHT22;12250;50.956;4.746;2023-03-01T15:35:54;7.90;60.80
24049;DHT22;12250;50.956;4.746;2023-03-01T15:40:56;7.80;62.30
24049;DHT22;12250;50.956;4.746;2023-03-01T15:46:35;7.70;62.60
24049;DHT22;12250;50.956;4.746;2023-03-01T15:51:53;7.80;63.30
24049;DHT22;12250;50.956;4.746;2023-03-01T15:54:22;7.90;63.40
24049;DHT22;12250;50.956;4.746;2023-03-01T15:56:49;7.90;63.60
24049;DHT22;12250;50.956;4.746;2023-03-01T15:59:16;7.80;63.90
24049;DHT22;12250;50.956;4.746;2023-03-01T16:01:42;7.90;64.30
24049;DHT22;12250;50.956;4.746;2023-03-01T16:04:13;7.90;65.10
24049;DHT22;12250;50.956;4.746;2023-03-01T16:06:46;7.90;66.10
24049;DHT22;12250;50.956;4.746;2023-03-01T16:09:12;7.80;65.50
24049;DHT22;12250;50.956;4.746;2023-03-01T16:11:38;7.60;65.60
24049;DHT22;12250;50.956;4.746;2023-03-01T16:14:06;7.70;65.80
24049;DHT22;12250;50.956;4.746;2023-03-01T16:16:31;7.50;65.10
24049;DHT22;12250;50.956;4.746;2023-03-01T16:18:57;7.60;66.60
24049;DHT22;12250;50.956;4.746;2023-03-01T16:21:24;7.60;66.50
24049;DHT22;12250;50.956;4.746;2023-03-01T16:23:50;7.50;66.40
24049;DHT22;12250;50.956;4.746;2023-03-01T16:26:17;7.40;67.60
24049;DHT22;12250;50.956;4.746;2023-03-01T16:28:44;7.30;66.90
24049;DHT22;12250;50.956;4.746;2023-03-01T16:31:11;7.20;68.60
24049;DHT22;12250;50.956;4.746;2023-03-01T16:33:37;7.10;67.90
24049;DHT22;12250;50.956;4.746;2023-03-01T16:36:11;7.00;68.40
24049;DHT22;12250;50.956;4.746;2023-03-01T16:38:38;6.90;69.10
24049;DHT22;12250;50.956;4.746;2023-03-01T16:41:04;7.00;69.60
24049;DHT22;12250;50.956;4.746;2023-03-01T16:43:31;6.80;69.80
24049;DHT22;12250;50.956;4.746;2023-03-01T16:45:57;6.80;69.80
24049;DHT22;12250;50.956;4.746;2023-03-01T16:48:24;6.70;70.60
24049;DHT22;12250;50.956;4.746;2023-03-01T16:51:00;6.60;70.70
24049;DHT22;12250;50.956;4.746;2023-03-01T16:53:27;6.50;71.20
24049;DHT22;12250;50.956;4.746;2023-03-01T16:55:57;6.50;72.10
24049;DHT22;12250;50.956;4.746;2023-03-01T16:58:23;6.40;71.70
24049;DHT22;12250;50.956;4.746;2023-03-01T17:00:53;6.40;72.40
24049;DHT22;12250;50.956;4.746;2023-03-01T17:03:20;6.30;71.80
24049;DHT22;12250;50.956;4.746;2023-03-01T17:05:46;6.20;72.20
24049;DHT22;12250;50.956;4.746;2023-03-01T17:08:11;6.20;72.70
24049;DHT22;12250;50.956;4.746;2023-03-01T17:10:37;6.10;72.80
24049;DHT22;12250;50.956;4.746;2023-03-01T17:13:03;6.00;73.10
24049;DHT22;12250;50.956;4.746;2023-03-01T17:15:29;5.90;73.80
24049;DHT22;12250;50.956;4.746;2023-03-01T17:17:54;5.80;73.70
24049;DHT22;12250;50.956;4.746;2023-03-01T17:20:20;5.70;74.10
24049;DHT22;12250;50.956;4.746;2023-03-01T17:22:46;5.70;74.40
24049;DHT22;12250;50.956;4.746;2023-03-01T17:25:12;5.60;74.80
24049;DHT22;12250;50.956;4.746;2023-03-01T17:27:38;5.50;75.30
24049;DHT22;12250;50.956;4.746;2023-03-01T17:30:06;5.40;76.30
24049;DHT22;12250;50.956;4.746;2023-03-01T17:32:32;5.30;76.30
24049;DHT22;12250;50.956;4.746;2023-03-01T17:34:57;5.20;76.70
24049;DHT22;12250;50.956;4.746;2023-03-01T17:37:23;5.10;77.00
24049;DHT22;12250;50.956;4.746;2023-03-01T17:39:49;5.00;77.00
24049;DHT22;12250;50.956;4.746;2023-03-01T17:42:16;4.90;77.50
24049;DHT22;12250;50.956;4.746;2023-03-01T17:44:41;4.80;78.00
24049;DHT22;12250;50.956;4.746;2023-03-01T17:47:08;4.70;78.40
24049;DHT22;12250;50.956;4.746;2023-03-01T17:49:34;4.60;78.30